createdAt,value
2022-12-25T00:03:26.568Z,2.70
2022-12-25T00:08:29.841Z,2.79
2022-12-25T00:13:33.062Z,2.68
2022-12-25T00:18:36.207Z,2.68
2022-12-25T00:23:39.597Z,2.39
2022-12-25T00:28:43.000Z,2.47
2022-12-25T00:33:48.053Z,2.58
2022-12-25T00:38:51.248Z,2.47
2022-12-25T00:43:54.557Z,2.29
2022-12-25T00:54:18.063Z,2.37
2022-12-25T00:59:21.228Z,2.26
2022-12-25T01:04:24.275Z,2.49
2022-12-25T01:09:45.612Z,2.32
2022-12-25T01:14:50.309Z,2.39
2022-12-25T01:19:53.355Z,2.37
2022-12-25T01:24:56.380Z,2.46
2022-12-25T01:30:00.393Z,2.18
2022-12-25T01:35:03.681Z,1.98
2022-12-25T01:40:07.515Z,2.06
2022-12-25T01:45:40.934Z,2.32
2022-12-25T01:50:50.168Z,2.20
2022-12-25T01:55:59.182Z,2.22
2022-12-25T02:01:02.437Z,2.14
2022-12-25T02:06:05.981Z,2.23
2022-12-25T02:11:29.820Z,2.22
2022-12-25T02:16:58.317Z,2.16
2022-12-25T02:22:29.912Z,2.25
2022-12-25T02:27:51.427Z,2.28
2022-12-25T02:33:19.198Z,2.07
2022-12-25T02:38:33.667Z,1.91
2022-12-25T02:44:00.807Z,2.11
2022-12-25T02:49:27.713Z,1.97
2022-12-25T02:54:59.459Z,1.94
2022-12-25T03:00:22.504Z,1.74
2022-12-25T03:05:45.637Z,1.66
2022-12-25T03:11:21.904Z,1.88
2022-12-25T03:16:43.576Z,1.96
2022-12-25T03:22:05.878Z,2.06
2022-12-25T03:27:09.062Z,1.81
2022-12-25T03:32:34.363Z,2.02
2022-12-25T03:37:46.102Z,2.09
2022-12-25T03:43:17.508Z,2.04
2022-12-25T03:48:40.283Z,2.02
2022-12-25T03:54:09.453Z,1.97
2022-12-25T03:59:31.188Z,2.02
2022-12-25T04:04:52.724Z,1.93
2022-12-25T04:10:14.961Z,2.04
2022-12-25T04:15:36.578Z,2.45
2022-12-25T04:20:58.239Z,2.13
2022-12-25T04:26:19.898Z,1.89
2022-12-25T04:31:41.494Z,1.99
2022-12-25T04:36:44.687Z,1.96
2022-12-25T04:41:47.734Z,1.91
2022-12-25T04:46:50.929Z,2.03
2022-12-25T04:51:54.134Z,1.96
2022-12-25T04:57:05.159Z,1.99
2022-12-25T05:02:08.733Z,1.93
2022-12-25T05:07:11.983Z,2.22
2022-12-25T05:12:15.083Z,2.12
2022-12-25T05:17:18.296Z,2.04
2022-12-25T05:22:21.315Z,2.06
2022-12-25T05:27:24.497Z,2.26
2022-12-25T05:32:27.556Z,2.21
2022-12-25T05:37:30.637Z,1.95
2022-12-25T05:42:34.823Z,2.03
2022-12-25T05:47:37.876Z,1.80
2022-12-25T05:52:40.963Z,1.49
2022-12-25T05:57:44.020Z,1.70
2022-12-25T06:02:47.136Z,1.49
2022-12-25T06:07:50.347Z,1.82
2022-12-25T06:12:53.525Z,1.67
2022-12-25T06:17:56.628Z,1.59
2022-12-25T06:23:00.819Z,1.80
2022-12-25T06:28:03.995Z,1.86
2022-12-25T06:33:07.039Z,1.78
2022-12-25T06:38:10.172Z,1.76
2022-12-25T06:48:36.926Z,2.15
2022-12-25T06:53:40.913Z,1.90
2022-12-25T06:58:49.893Z,1.94
2022-12-25T07:03:56.722Z,1.91
2022-12-25T07:08:59.839Z,1.76
2022-12-25T07:14:03.049Z,1.88
2022-12-25T07:19:06.072Z,1.91
2022-12-25T07:24:09.159Z,1.94
2022-12-25T07:29:12.456Z,1.91
2022-12-25T07:34:17.354Z,1.97
2022-12-25T07:39:20.421Z,1.93
2022-12-25T07:44:23.578Z,1.72
2022-12-25T07:49:26.763Z,1.98
2022-12-25T07:54:29.896Z,1.73
2022-12-25T07:59:32.900Z,1.78
2022-12-25T08:04:35.934Z,1.79
2022-12-25T08:09:39.014Z,2.16
2022-12-25T08:14:42.493Z,2.46
2022-12-25T08:19:45.571Z,2.36
2022-12-25T08:24:48.699Z,2.19
2022-12-25T08:29:51.819Z,2.12
2022-12-25T08:34:54.882Z,1.98
2022-12-25T08:39:57.920Z,2.34
2022-12-25T08:45:01.019Z,2.09
2022-12-25T08:50:06.821Z,2.16
2022-12-25T08:55:10.200Z,1.89
2022-12-25T09:00:13.786Z,2.02
2022-12-25T09:05:16.868Z,1.79
2022-12-25T09:10:19.949Z,1.93
2022-12-25T09:15:23.028Z,2.28
2022-12-25T09:20:26.141Z,2.20
2022-12-25T09:25:29.275Z,1.96
2022-12-25T09:30:32.320Z,1.90
2022-12-25T09:35:35.570Z,2.07
2022-12-25T09:40:38.739Z,2.17
2022-12-25T09:45:44.133Z,1.86
2022-12-25T09:50:53.494Z,2.01
2022-12-25T09:56:11.060Z,2.20
2022-12-25T10:01:22.900Z,2.19
2022-12-25T10:06:31.156Z,2.23
2022-12-25T10:11:52.193Z,2.15
2022-12-25T10:17:17.004Z,2.12
2022-12-25T10:22:30.721Z,2.17
2022-12-25T10:27:40.187Z,2.30
2022-12-25T10:32:44.846Z,2.36
2022-12-25T10:38:15.364Z,2.26
2022-12-25T10:43:44.129Z,2.31
2022-12-25T10:49:13.821Z,2.22
2022-12-25T10:54:37.688Z,2.38
2022-12-25T10:59:49.404Z,2.24
2022-12-25T11:05:01.766Z,2.03
2022-12-25T11:10:33.453Z,2.31
2022-12-25T11:15:45.140Z,2.24
2022-12-25T11:20:56.027Z,2.32
2022-12-25T11:26:07.873Z,2.29
2022-12-25T11:36:46.454Z,2.26
2022-12-25T11:41:54.995Z,2.40
2022-12-25T11:47:28.040Z,2.06
2022-12-25T11:52:36.871Z,2.15
2022-12-25T11:57:41.856Z,2.06
2022-12-25T12:02:47.744Z,2.24
2022-12-25T12:07:59.272Z,2.30
2022-12-25T12:13:16.287Z,2.03
2022-12-25T12:18:29.991Z,2.11
2022-12-25T12:24:01.736Z,2.14
2022-12-25T12:29:08.569Z,2.23
2022-12-25T12:34:48.371Z,1.97
2022-12-25T12:39:54.266Z,1.90
2022-12-25T12:45:06.784Z,2.03
2022-12-25T12:55:48.797Z,2.10
2022-12-25T13:01:14.386Z,2.22
2022-12-25T13:06:55.849Z,1.89
2022-12-25T13:11:59.242Z,1.94
2022-12-25T13:17:02.503Z,1.88
2022-12-25T13:22:07.523Z,1.94
2022-12-25T13:27:25.031Z,1.71
2022-12-25T13:32:32.175Z,1.84
2022-12-25T13:37:35.713Z,2.02
2022-12-25T13:42:42.058Z,1.60
2022-12-25T13:47:51.446Z,1.83
2022-12-25T13:53:10.452Z,1.76
2022-12-25T14:03:47.322Z,1.88
2022-12-25T14:08:51.578Z,1.84
2022-12-25T14:14:01.888Z,2.00
2022-12-25T14:19:29.191Z,1.92
2022-12-25T14:24:35.103Z,1.86
2022-12-25T14:29:43.148Z,1.82
2022-12-25T14:34:49.843Z,2.08
2022-12-25T14:40:24.998Z,1.97
2022-12-25T14:45:38.740Z,1.80
2022-12-25T14:51:01.716Z,1.63
2022-12-25T14:56:07.182Z,1.67
2022-12-25T15:01:39.611Z,1.97
2022-12-25T15:06:53.045Z,1.61
2022-12-25T15:11:57.003Z,1.64
2022-12-25T15:17:01.732Z,1.84
2022-12-25T15:22:05.102Z,1.88
2022-12-25T15:27:19.171Z,1.73
2022-12-25T15:32:24.646Z,1.61
2022-12-25T15:37:27.727Z,1.79
2022-12-25T15:42:30.831Z,1.87
2022-12-25T15:47:34.101Z,1.62
2022-12-25T15:52:37.204Z,1.53
2022-12-25T15:57:45.722Z,2.02
2022-12-25T16:02:50.352Z,1.65
2022-12-25T16:07:53.569Z,1.62
2022-12-25T16:12:56.624Z,1.81
2022-12-25T16:17:59.680Z,1.79
2022-12-25T16:23:02.737Z,1.85
2022-12-25T16:28:09.843Z,1.65
2022-12-25T16:33:12.763Z,1.97
2022-12-25T16:38:15.764Z,1.79
2022-12-25T16:43:23.794Z,1.83
2022-12-25T16:48:27.277Z,1.85
2022-12-25T16:53:30.486Z,1.76
2022-12-25T16:58:33.671Z,1.85
2022-12-25T17:03:37.013Z,2.04
2022-12-25T17:08:43.967Z,2.29
2022-12-25T17:13:48.577Z,1.72
2022-12-25T17:19:01.588Z,1.98
2022-12-25T17:24:05.277Z,2.02
2022-12-25T17:29:09.075Z,1.92
2022-12-25T17:34:12.455Z,1.77
2022-12-25T17:39:15.559Z,1.93
2022-12-25T17:44:19.152Z,1.79
2022-12-25T17:49:23.725Z,1.76
2022-12-25T17:54:26.807Z,1.85
2022-12-25T17:59:30.224Z,1.85
2022-12-25T18:04:33.578Z,2.06
2022-12-25T18:09:40.023Z,1.92
2022-12-25T18:14:45.588Z,1.96
2022-12-25T18:19:51.861Z,1.83
2022-12-25T18:24:54.897Z,1.78
2022-12-25T18:29:58.020Z,1.87
2022-12-25T18:40:18.956Z,2.08
2022-12-25T18:45:25.057Z,1.93
2022-12-25T18:50:30.525Z,1.77
2022-12-25T18:55:36.612Z,1.65
2022-12-25T19:00:39.852Z,1.95
2022-12-25T19:05:43.695Z,2.01
2022-12-25T19:10:46.849Z,1.93
2022-12-25T19:21:10.506Z,1.94
2022-12-25T19:26:13.616Z,1.67
2022-12-25T19:31:17.113Z,1.78
2022-12-25T19:36:20.306Z,2.04
2022-12-25T19:41:23.387Z,1.85
2022-12-25T19:46:29.480Z,1.79
2022-12-25T19:51:36.636Z,1.94
2022-12-25T19:56:39.929Z,1.85
2022-12-25T20:01:43.205Z,1.71
2022-12-25T20:06:46.484Z,1.52
2022-12-25T20:11:49.860Z,1.57
2022-12-25T20:16:53.162Z,1.47
2022-12-25T20:21:56.293Z,1.84
2022-12-25T20:26:59.682Z,1.84
2022-12-25T20:32:03.318Z,1.69
2022-12-25T20:37:06.411Z,1.71
2022-12-25T20:42:09.669Z,1.63
2022-12-25T20:47:13.661Z,1.81
2022-12-25T20:52:16.769Z,1.48
2022-12-25T20:57:19.891Z,1.72
2022-12-25T21:02:35.918Z,1.80
2022-12-25T21:07:39.601Z,1.85
2022-12-25T21:12:42.632Z,1.91
2022-12-25T21:17:45.682Z,1.81
2022-12-25T21:22:48.796Z,1.56
2022-12-25T21:27:51.875Z,1.57
2022-12-25T21:33:16.876Z,1.65
2022-12-25T21:38:20.116Z,1.72
2022-12-25T21:43:23.108Z,1.41
2022-12-25T21:48:26.158Z,1.61
2022-12-25T21:53:29.192Z,1.70
2022-12-25T21:58:35.178Z,1.53
2022-12-25T22:03:38.617Z,1.48
2022-12-25T22:08:41.918Z,1.54
2022-12-25T22:14:03.514Z,1.36
2022-12-25T22:19:25.148Z,1.49
2022-12-25T22:24:28.279Z,1.67
2022-12-25T22:29:31.337Z,1.59
2022-12-25T22:34:34.495Z,1.58
2022-12-25T22:39:38.268Z,1.21
2022-12-25T22:44:41.377Z,1.26
2022-12-25T22:49:44.598Z,1.54
2022-12-25T22:54:47.646Z,1.46
2022-12-25T22:59:53.223Z,1.18
2022-12-25T23:04:56.433Z,1.32
2022-12-25T23:09:59.467Z,1.15
2022-12-25T23:15:02.472Z,1.36
2022-12-25T23:20:26.153Z,1.19
2022-12-25T23:25:48.376Z,1.29
2022-12-25T23:30:51.461Z,1.13
2022-12-25T23:35:54.492Z,1.24
2022-12-25T23:40:57.527Z,1.34
2022-12-25T23:46:00.675Z,1.38
2022-12-25T23:51:07.269Z,1.13
2022-12-25T23:56:10.810Z,1.20
